Главная страница
METAR-TAF:

METAR-TAF

Аэропорты :

Уагадугу, Буркина-Фасо

широта: 12-21N, долгота: 001-31W, высота над уровнем моря: 316 м

Текущие метеонаблюдения

Эта сводка был подготовлена 24 минут назад, в 12:00 UTC
Ветер 14 Узел от восточный
Температура 31°C
Влажность 7%
Давление 1015 hPa
Видимость 10 км и более
Нет облачности ниже 1500 м, и нет кучево-дождевой облачности

METAR: DFFD 221200Z 10014KT CAVOK 31/M09 Q1015 NOSIG

Время: 12:24 (12:24 UTC)

Прогноз

Эта сводка был подготовлена 1 час и 24 минут назад, в 11:00 UTC
Прогноз действительный с 22-го 12 UTC до 23-го 18 UTC
Ветер 10 Узел от восточный
Видимость: 8000 м
временами
С 22-го 17 UTC до 22-го 21 UTC
Видимость: 4000 м
пыль, взвешенная над обширной территорией
изменения
С 23-го 04 UTC до 23-го 06 UTC
Видимость: 3500 м
пыль, взвешенная над обширной территорией

TAF: DFFD 221100Z 2212/2318 08010KT 8000 NSC TEMPO 2217/2221 4000 DU BECMG 2304/2306 3500 DU

Метеонаблюдения и прогнозы для более 4000 аэропортов (сводки METAR и TAF).

Имеющиеся станции представлены на карте желтыми и красными точками.

Чтобы увидеть название станции, наведите на нее мышь.

Затем щелкните, чтобы увидеть метеонаблюдения и метеопрогнозы.

Управление картой: чтобы увеличить масштаб, щелкните зеленые кнопки с черным крестиком; чтобы уменьшить масштаб, щелкните зеленую кнопку с тире; для просмотра соседних карт щелкайте зеленые стрелки.


METAR-TAF: